Time;durP1;ratioP1;P1;durP2;ratioP2;P2;SDS_P1;SDS_P2;PMS_P1;PMS_P2;Temp;Humidity;BMP_temperature;BMP_pressure;BME280_temperature;BME280_humidity;BME280_pressure;Samples;Min_cycle;Max_cycle;Signal;HPM_P1;HPM_P2
2022/10/21 00:02:14;;;;;;;20.05;12.40;;;;;;;;;;5073072;28;20070;-72
2022/10/21 00:04:40;;;;;;;15.55;11.88;;;;;;;;;;5072954;28;20087;-72
2022/10/21 00:07:06;;;;;;;19.77;12.65;;;;;;;;;;5073009;28;20052;-72
2022/10/21 00:09:32;;;;;;;14.00;11.65;;;;;;;;;;5072687;28;20091;-72
2022/10/21 00:11:58;;;;;;;15.07;12.57;;;;;;;;;;5072991;28;20051;-72
2022/10/21 00:14:24;;;;;;;16.25;12.30;;;;;;;;;;5072910;28;20033;-72
2022/10/21 00:16:50;;;;;;;19.10;13.35;;;;;;;;;;5072949;28;20024;-72
2022/10/21 00:19:16;;;;;;;20.13;12.27;;;;;;;;;;5073505;28;20413;-72
2022/10/21 00:21:42;;;;;;;16.35;11.70;;;;;;;;;;5073030;28;20025;-72
2022/10/21 00:24:09;;;;;;;17.35;11.07;;;;;;;;;;5054753;28;20497;-72
2022/10/21 00:26:35;;;;;;;15.95;11.88;;;;;;;;;;5055280;28;20044;-72
2022/10/21 00:29:01;;;;;;;15.77;12.10;;;;;;;;;;5072673;28;20495;-72
2022/10/21 00:31:27;;;;;;;18.90;11.45;;;;;;;;;;5072736;28;20021;-72
2022/10/21 00:33:53;;;;;;;14.50;10.98;;;;;;;;;;5071683;28;20098;-72
2022/10/21 00:36:19;;;;;;;14.00;10.48;;;;;;;;;;5072624;28;20383;-71
2022/10/21 00:38:47;;;;;;;17.27;12.10;;;;;;;;;;5072756;28;20560;-72
2022/10/21 00:41:14;;;;;;;23.95;14.13;;;;;;;;;;5054624;28;20378;-72
2022/10/21 00:43:57;;;;;;;15.00;11.43;;;;;;;;;;5072560;28;20483;-72
2022/10/21 00:46:43;;;;;;;16.23;10.93;;;;;;;;;;5072623;28;20013;-72
2022/10/21 00:49:15;;;;;;;13.95;10.43;;;;;;;;;;5072886;28;20502;-72
2022/10/21 00:51:42;;;;;;;14.60;11.25;;;;;;;;;;5072681;28;20036;-72
2022/10/21 00:54:09;;;;;;;15.05;11.43;;;;;;;;;;5072539;28;20040;-72
2022/10/21 00:56:35;;;;;;;17.58;10.70;;;;;;;;;;5054044;28;20032;-72
2022/10/21 00:59:03;;;;;;;13.20;10.63;;;;;;;;;;5072512;28;20051;-72
2022/10/21 01:01:29;;;;;;;14.10;10.65;;;;;;;;;;5054288;28;20509;-72
2022/10/21 01:03:55;;;;;;;18.35;11.35;;;;;;;;;;5072196;28;20035;-71
2022/10/21 01:06:23;;;;;;;14.48;10.35;;;;;;;;;;5072325;28;20025;-72
2022/10/21 01:08:51;;;;;;;13.27;10.55;;;;;;;;;;5072387;28;20467;-72
2022/10/21 01:11:18;;;;;;;15.65;10.82;;;;;;;;;;5072641;28;20386;-72
2022/10/21 01:13:58;;;;;;;15.32;11.18;;;;;;;;;;5072334;28;20074;-73
2022/10/21 01:16:30;;;;;;;15.75;10.35;;;;;;;;;;5072319;28;20554;-72
2022/10/21 01:19:00;;;;;;;14.90;11.10;;;;;;;;;;5072261;28;20028;-72
2022/10/21 01:21:45;;;;;;;15.43;11.13;;;;;;;;;;5072177;28;20028;-72
2022/10/21 01:24:14;;;;;;;13.38;10.00;;;;;;;;;;5054235;28;20437;-72
2022/10/21 01:26:59;;;;;;;14.80;10.30;;;;;;;;;;5072075;28;20659;-72
2022/10/21 01:29:31;;;;;;;15.00;11.30;;;;;;;;;;5072096;28;20035;-72
2022/10/21 01:31:57;;;;;;;14.40;10.02;;;;;;;;;;5072042;28;20009;-72
2022/10/21 01:34:25;;;;;;;15.82;10.05;;;;;;;;;;5072261;28;20124;-72
2022/10/21 01:37:03;;;;;;;15.15;10.68;;;;;;;;;;5072027;28;20094;-72
2022/10/21 01:39:39;;;;;;;13.23;10.13;;;;;;;;;;5072197;28;20474;-71
2022/10/21 01:42:10;;;;;;;14.68;9.85;;;;;;;;;;5072255;28;20483;-72
2022/10/21 01:44:40;;;;;;;16.30;10.87;;;;;;;;;;5072308;28;20024;-72
2022/10/21 01:47:09;;;;;;;13.98;11.18;;;;;;;;;;5075571;28;20028;-72
2022/10/21 01:49:37;;;;;;;14.20;10.40;;;;;;;;;;5075504;28;20078;-72
2022/10/21 01:52:04;;;;;;;12.15;10.10;;;;;;;;;;5076060;28;20024;-72
2022/10/21 01:54:36;;;;;;;12.68;9.95;;;;;;;;;;5075271;28;20063;-72
2022/10/21 01:57:02;;;;;;;14.45;9.48;;;;;;;;;;5075410;28;20032;-73
2022/10/21 01:59:30;;;;;;;13.27;9.55;;;;;;;;;;5075443;28;20479;-72
2022/10/21 02:01:56;;;;;;;14.15;9.43;;;;;;;;;;5075303;28;20032;-72
2022/10/21 02:04:23;;;;;;;14.00;10.45;;;;;;;;;;5075130;28;20017;-72
2022/10/21 02:06:49;;;;;;;15.60;10.52;;;;;;;;;;5075403;28;20024;-72
2022/10/21 02:09:15;;;;;;;12.45;9.35;;;;;;;;;;5074997;28;20055;-71
2022/10/21 02:11:43;;;;;;;12.90;9.57;;;;;;;;;;5075277;28;20051;-72
2022/10/21 02:14:19;;;;;;;12.00;9.15;;;;;;;;;;5075112;28;20043;-72
2022/10/21 02:16:46;;;;;;;16.17;10.50;;;;;;;;;;5075184;28;20104;-72
2022/10/21 02:19:15;;;;;;;13.50;9.13;;;;;;;;;;5074951;28;20028;-71
2022/10/21 02:21:42;;;;;;;14.43;10.55;;;;;;;;;;5074925;28;20052;-72
2022/10/21 02:24:14;;;;;;;15.75;10.32;;;;;;;;;;5075194;28;20056;-72
2022/10/21 02:26:41;;;;;;;12.45;9.60;;;;;;;;;;5074871;28;20063;-72
2022/10/21 02:29:07;;;;;;;13.43;9.95;;;;;;;;;;5074898;28;20048;-72
2022/10/21 02:31:51;;;;;;;17.00;9.73;;;;;;;;;;5074970;28;20033;-72
2022/10/21 02:34:26;;;;;;;13.88;9.50;;;;;;;;;;5063031;28;20075;-72
2022/10/21 02:36:58;;;;;;;11.75;9.55;;;;;;;;;;5073538;28;20028;-72
2022/10/21 02:39:31;;;;;;;14.10;10.38;;;;;;;;;;5074857;28;20108;-72
2022/10/21 02:41:59;;;;;;;12.32;9.65;;;;;;;;;;5074643;28;20027;-72
2022/10/21 02:44:25;;;;;;;12.23;10.45;;;;;;;;;;5074620;28;20025;-72
2022/10/21 02:46:51;;;;;;;11.55;8.77;;;;;;;;;;5074764;28;20471;-72
2022/10/21 02:49:17;;;;;;;13.73;9.88;;;;;;;;;;5074416;28;20033;-72
2022/10/21 02:51:44;;;;;;;14.45;9.95;;;;;;;;;;5074512;28;20020;-72
2022/10/21 02:54:11;;;;;;;13.63;9.63;;;;;;;;;;5074304;28;20067;-72
2022/10/21 02:56:37;;;;;;;14.05;9.40;;;;;;;;;;5073442;28;20024;-72
2022/10/21 02:59:03;;;;;;;10.90;8.80;;;;;;;;;;5074786;28;20032;-72
2022/10/21 03:01:29;;;;;;;12.45;9.57;;;;;;;;;;5074308;28;20031;-72
2022/10/21 03:03:55;;;;;;;12.38;9.13;;;;;;;;;;5039984;28;20478;-72
2022/10/21 03:06:21;;;;;;;11.30;8.80;;;;;;;;;;5072885;28;20379;-72
2022/10/21 03:08:47;;;;;;;12.80;10.35;;;;;;;;;;5074247;28;20044;-72
2022/10/21 03:11:13;;;;;;;11.77;9.05;;;;;;;;;;5073883;28;20055;-72
2022/10/21 03:13:39;;;;;;;12.60;9.48;;;;;;;;;;5056270;28;20033;-72
2022/10/21 03:16:06;;;;;;;14.65;10.10;;;;;;;;;;5074500;28;20070;-72
2022/10/21 03:18:32;;;;;;;14.35;9.95;;;;;;;;;;5073697;28;20112;-72
2022/10/21 03:20:58;;;;;;;15.43;10.02;;;;;;;;;;5073930;28;20145;-71
2022/10/21 03:23:24;;;;;;;14.68;9.73;;;;;;;;;;5073897;28;20047;-72
2022/10/21 03:25:50;;;;;;;11.57;8.70;;;;;;;;;;5074167;28;20032;-71
2022/10/21 03:28:16;;;;;;;16.88;9.90;;;;;;;;;;5073972;28;20359;-72
2022/10/21 03:30:42;;;;;;;12.23;8.80;;;;;;;;;;5074032;28;20396;-72
2022/10/21 03:33:08;;;;;;;13.82;9.02;;;;;;;;;;5073347;28;20028;-72
2022/10/21 03:35:34;;;;;;;13.57;8.68;;;;;;;;;;5073368;28;20024;-72
2022/10/21 03:38:00;;;;;;;12.57;9.55;;;;;;;;;;5073652;28;20103;-72
2022/10/21 03:40:28;;;;;;;14.48;10.48;;;;;;;;;;5071559;28;20040;-72
2022/10/21 03:42:55;;;;;;;12.32;9.63;;;;;;;;;;5073440;28;20020;-71
2022/10/21 03:45:21;;;;;;;13.63;10.23;;;;;;;;;;5073501;28;20025;-72
2022/10/21 03:47:47;;;;;;;17.00;11.45;;;;;;;;;;5072956;28;20031;-72
2022/10/21 03:50:13;;;;;;;21.08;11.50;;;;;;;;;;5073338;28;20043;-72
2022/10/21 03:52:39;;;;;;;16.58;11.07;;;;;;;;;;5073268;28;20383;-71
2022/10/21 03:55:06;;;;;;;15.45;11.75;;;;;;;;;;5073196;28;20458;-72
2022/10/21 03:57:32;;;;;;;16.33;11.90;;;;;;;;;;5073349;28;20027;-71
2022/10/21 03:59:58;;;;;;;16.02;10.93;;;;;;;;;;5073075;28;20471;-72
2022/10/21 04:02:24;;;;;;;17.67;11.65;;;;;;;;;;5073056;28;20435;-72
2022/10/21 04:04:50;;;;;;;20.70;11.98;;;;;;;;;;5072747;28;20366;-72
2022/10/21 04:07:16;;;;;;;23.60;16.67;;;;;;;;;;5073048;28;20467;-72
2022/10/21 04:09:42;;;;;;;21.13;13.93;;;;;;;;;;5072654;28;20503;-72
2022/10/21 04:12:08;;;;;;;16.63;12.93;;;;;;;;;;5072976;28;20082;-72
2022/10/21 04:14:34;;;;;;;22.02;12.20;;;;;;;;;;5072793;28;20044;-71
2022/10/21 04:17:00;;;;;;;17.60;13.15;;;;;;;;;;5072865;28;20024;-71
2022/10/21 04:19:26;;;;;;;14.70;11.63;;;;;;;;;;5072588;28;20034;-72
2022/10/21 04:21:52;;;;;;;18.20;12.30;;;;;;;;;;5072829;28;20019;-72
2022/10/21 04:24:18;;;;;;;14.38;10.63;;;;;;;;;;5072910;28;20025;-72
2022/10/21 04:26:45;;;;;;;15.68;11.05;;;;;;;;;;5072696;28;20032;-72
2022/10/21 04:29:11;;;;;;;22.35;14.23;;;;;;;;;;5073033;28;20474;-72
2022/10/21 04:31:37;;;;;;;19.67;14.40;;;;;;;;;;5072695;28;20039;-72
2022/10/21 04:34:03;;;;;;;25.33;17.02;;;;;;;;;;5072346;28;20091;-72
2022/10/21 04:36:29;;;;;;;26.83;14.63;;;;;;;;;;5072579;28;20093;-72
2022/10/21 04:38:55;;;;;;;27.77;19.48;;;;;;;;;;5054445;28;20048;-71
2022/10/21 04:41:21;;;;;;;17.45;12.98;;;;;;;;;;5072632;28;20027;-72
2022/10/21 04:43:47;;;;;;;22.48;14.02;;;;;;;;;;5072668;28;20027;-72
2022/10/21 04:46:15;;;;;;;26.67;17.05;;;;;;;;;;5072461;28;20009;-72
2022/10/21 04:48:41;;;;;;;24.35;16.50;;;;;;;;;;5053709;28;20032;-72
2022/10/21 04:51:07;;;;;;;32.63;19.52;;;;;;;;;;5072512;28;20081;-72
2022/10/21 04:53:33;;;;;;;27.08;18.05;;;;;;;;;;5054779;28;20020;-72
2022/10/21 04:55:59;;;;;;;23.80;17.17;;;;;;;;;;5072327;28;20033;-72
2022/10/21 04:58:25;;;;;;;20.17;13.98;;;;;;;;;;5072433;28;20048;-72
2022/10/21 05:00:52;;;;;;;17.65;11.80;;;;;;;;;;5072380;28;20113;-72
2022/10/21 05:03:18;;;;;;;17.90;12.23;;;;;;;;;;5072148;28;20023;-72
2022/10/21 05:05:44;;;;;;;22.25;12.75;;;;;;;;;;5072229;28;20025;-72
2022/10/21 05:08:10;;;;;;;20.75;13.40;;;;;;;;;;5072242;28;20074;-72
2022/10/21 05:10:36;;;;;;;20.67;14.73;;;;;;;;;;5072235;28;20048;-72
2022/10/21 05:13:02;;;;;;;20.77;14.80;;;;;;;;;;5072059;28;20021;-72
2022/10/21 05:15:28;;;;;;;21.80;15.65;;;;;;;;;;5072271;28;20017;-72
2022/10/21 05:17:54;;;;;;;23.50;16.27;;;;;;;;;;5072304;28;20075;-72
2022/10/21 05:20:20;;;;;;;22.75;15.77;;;;;;;;;;5073508;28;20475;-71
2022/10/21 05:22:48;;;;;;;21.63;16.75;;;;;;;;;;5076238;28;20464;-72
2022/10/21 05:25:14;;;;;;;25.02;18.70;;;;;;;;;;5075909;28;20065;-72
2022/10/21 05:27:40;;;;;;;24.55;18.00;;;;;;;;;;5076346;28;20116;-71
2022/10/21 05:30:06;;;;;;;22.42;15.55;;;;;;;;;;5075777;28;20482;-71
2022/10/21 05:32:32;;;;;;;17.63;13.68;;;;;;;;;;5075822;28;20028;-72
2022/10/21 05:34:58;;;;;;;26.65;16.23;;;;;;;;;;5075542;28;20044;-72
2022/10/21 05:37:24;;;;;;;26.35;16.70;;;;;;;;;;5075780;28;20021;-71
2022/10/21 05:39:50;;;;;;;30.25;19.58;;;;;;;;;;5075933;28;20056;-71
2022/10/21 05:42:17;;;;;;;28.58;20.65;;;;;;;;;;5075932;28;20032;-71
2022/10/21 05:44:43;;;;;;;30.30;22.20;;;;;;;;;;5075580;28;20021;-72
2022/10/21 05:47:09;;;;;;;28.52;18.90;;;;;;;;;;5075760;28;20051;-71
2022/10/21 05:49:35;;;;;;;31.80;20.05;;;;;;;;;;5075076;28;20024;-72
2022/10/21 05:52:01;;;;;;;24.05;16.17;;;;;;;;;;5075429;28;20029;-72
2022/10/21 05:54:27;;;;;;;24.52;17.08;;;;;;;;;;5075306;28;20033;-72
2022/10/21 05:56:56;;;;;;;29.20;18.27;;;;;;;;;;5075378;28;20028;-72
2022/10/21 05:59:23;;;;;;;36.60;20.50;;;;;;;;;;5075232;28;20471;-72
2022/10/21 06:01:49;;;;;;;23.92;18.42;;;;;;;;;;5075212;28;20024;-72
2022/10/21 06:04:15;;;;;;;24.38;18.95;;;;;;;;;;5075722;28;20028;-72
2022/10/21 06:06:41;;;;;;;31.40;19.80;;;;;;;;;;5075189;28;20735;-72
2022/10/21 06:09:07;;;;;;;25.52;18.25;;;;;;;;;;5075030;28;20032;-71
2022/10/21 06:11:33;;;;;;;25.92;17.58;;;;;;;;;;5075087;28;20009;-72
2022/10/21 06:13:59;;;;;;;30.48;18.48;;;;;;;;;;5075044;28;20032;-71
2022/10/21 06:16:25;;;;;;;21.05;14.77;;;;;;;;;;5074994;28;20028;-72
2022/10/21 06:18:51;;;;;;;20.13;14.57;;;;;;;;;;5074948;28;20025;-71
2022/10/21 06:21:17;;;;;;;20.58;15.10;;;;;;;;;;5074797;28;20028;-72
2022/10/21 06:23:44;;;;;;;22.55;15.02;;;;;;;;;;5074913;28;20028;-72
2022/10/21 06:26:11;;;;;;;22.33;16.00;;;;;;;;;;5074932;28;20036;-72
2022/10/21 06:28:38;;;;;;;24.88;17.58;;;;;;;;;;5074728;28;20486;-71
2022/10/21 06:31:05;;;;;;;23.60;16.70;;;;;;;;;;5074798;28;20031;-71
2022/10/21 06:33:32;;;;;;;24.52;16.33;;;;;;;;;;5056535;28;20024;-72
2022/10/21 06:35:58;;;;;;;20.63;15.45;;;;;;;;;;5074526;28;20108;-71
2022/10/21 06:38:24;;;;;;;21.50;14.82;;;;;;;;;;5074702;28;20099;-71
2022/10/21 06:40:51;;;;;;;19.63;14.65;;;;;;;;;;5074578;28;20056;-72
2022/10/21 06:43:17;;;;;;;21.35;15.27;;;;;;;;;;5074610;28;20024;-72
2022/10/21 06:45:43;;;;;;;21.40;14.32;;;;;;;;;;5074851;28;20028;-71
2022/10/21 06:48:10;;;;;;;24.45;15.48;;;;;;;;;;5056581;28;20032;-72
2022/10/21 06:50:39;;;;;;;24.75;18.98;;;;;;;;;;5074262;28;20021;-72
2022/10/21 06:53:05;;;;;;;26.83;19.35;;;;;;;;;;5074299;28;20017;-72
2022/10/21 06:55:31;;;;;;;20.90;15.48;;;;;;;;;;5074271;28;20052;-72
2022/10/21 06:57:58;;;;;;;24.13;16.55;;;;;;;;;;5074277;28;20553;-72
2022/10/21 07:00:25;;;;;;;29.67;16.75;;;;;;;;;;5074401;28;20028;-71
2022/10/21 07:02:51;;;;;;;26.67;17.05;;;;;;;;;;5074195;28;20024;-72
2022/10/21 07:05:17;;;;;;;23.85;15.20;;;;;;;;;;5073914;28;20022;-72
2022/10/21 07:07:43;;;;;;;28.48;18.27;;;;;;;;;;5056047;28;20478;-72
2022/10/21 07:10:09;;;;;;;23.58;16.00;;;;;;;;;;5073798;28;20418;-72
2022/10/21 07:12:35;;;;;;;23.98;13.73;;;;;;;;;;5074126;28;20031;-72
2022/10/21 07:15:01;;;;;;;23.38;15.02;;;;;;;;;;5073941;28;20032;-72
2022/10/21 07:17:31;;;;;;;18.50;13.15;;;;;;;;;;5074122;28;20017;-72
2022/10/21 07:19:57;;;;;;;19.90;13.75;;;;;;;;;;5073471;28;20029;-71
2022/10/21 07:22:23;;;;;;;19.13;14.40;;;;;;;;;;5073895;28;20027;-71
2022/10/21 07:24:49;;;;;;;24.35;15.43;;;;;;;;;;5073798;28;20021;-72
2022/10/21 07:27:15;;;;;;;24.42;16.83;;;;;;;;;;5073772;28;20514;-71
2022/10/21 07:29:41;;;;;;;23.23;17.15;;;;;;;;;;5073531;28;20071;-72
2022/10/21 07:32:07;;;;;;;30.73;23.55;;;;;;;;;;5073421;28;20391;-72
2022/10/21 07:34:33;;;;;;;26.00;19.52;;;;;;;;;;5073250;28;20497;-72
2022/10/21 07:36:59;;;;;;;27.52;19.08;;;;;;;;;;5073235;28;20608;-71
2022/10/21 07:39:26;;;;;;;28.33;20.58;;;;;;;;;;5073453;28;20478;-72
2022/10/21 07:41:53;;;;;;;35.03;25.13;;;;;;;;;;5055413;28;20066;-72
2022/10/21 07:44:20;;;;;;;36.08;25.05;;;;;;;;;;5054823;28;20512;-71
2022/10/21 07:46:47;;;;;;;35.45;21.98;;;;;;;;;;5073153;28;20073;-72
2022/10/21 07:49:14;;;;;;;33.22;24.23;;;;;;;;;;5073125;28;20024;-72
2022/10/21 07:51:40;;;;;;;32.28;22.33;;;;;;;;;;5073145;28;20026;-71
2022/10/21 07:54:07;;;;;;;28.08;21.77;;;;;;;;;;5072946;28;20043;-72
2022/10/21 07:56:35;;;;;;;29.20;21.80;;;;;;;;;;5072993;28;20412;-72
2022/10/21 07:59:03;;;;;;;26.42;17.55;;;;;;;;;;5072902;28;20056;-72
2022/10/21 08:01:29;;;;;;;26.10;17.55;;;;;;;;;;5073107;28;20024;-72
2022/10/21 08:03:55;;;;;;;21.40;15.70;;;;;;;;;;5073412;28;20379;-72
2022/10/21 08:06:22;;;;;;;24.15;16.75;;;;;;;;;;5072639;28;20530;-72
2022/10/21 08:08:48;;;;;;;22.95;17.60;;;;;;;;;;5073010;28;20028;-72
2022/10/21 08:11:25;;;;;;;26.65;18.65;;;;;;;;;;5072595;28;20051;-72
2022/10/21 08:13:51;;;;;;;24.40;18.55;;;;;;;;;;5072760;28;20048;-72
2022/10/21 08:16:17;;;;;;;25.77;18.38;;;;;;;;;;5072555;28;20025;-71
2022/10/21 08:18:44;;;;;;;23.63;17.98;;;;;;;;;;5072528;28;20026;-71
2022/10/21 08:21:10;;;;;;;23.70;18.45;;;;;;;;;;5072796;28;20378;-72
2022/10/21 08:23:36;;;;;;;27.48;17.75;;;;;;;;;;5072535;28;20048;-72
2022/10/21 08:26:03;;;;;;;30.30;18.55;;;;;;;;;;5072587;28;20027;-71
2022/10/21 08:28:30;;;;;;;22.13;17.85;;;;;;;;;;5072446;28;20021;-71
2022/10/21 08:31:07;;;;;;;34.10;19.75;;;;;;;;;;5072691;28;20020;-71
2022/10/21 08:33:33;;;;;;;26.33;19.83;;;;;;;;;;5072215;28;20482;-71
2022/10/21 08:36:03;;;;;;;29.25;19.75;;;;;;;;;;5072493;28;20031;-71
2022/10/21 08:38:29;;;;;;;28.75;19.02;;;;;;;;;;5072284;28;20390;-71
2022/10/21 08:40:55;;;;;;;24.65;17.40;;;;;;;;;;5072402;28;20020;-71
2022/10/21 08:43:27;;;;;;;26.85;20.25;;;;;;;;;;5072452;28;20017;-71
2022/10/21 08:45:53;;;;;;;;;;;;;;;;;;5072708;28;20024;-71
2022/10/21 08:48:22;;;;;;;30.33;20.70;;;;;;;;;;5072218;28;19904;-71
2022/10/21 08:50:50;;;;;;;25.33;17.45;;;;;;;;;;5054155;28;20396;-71
2022/10/21 08:53:16;;;;;;;24.77;18.23;;;;;;;;;;5072282;28;20033;-71
2022/10/21 08:55:44;;;;;;;32.67;21.05;;;;;;;;;;5074579;28;20039;-71
2022/10/21 08:58:21;;;;;;;22.45;16.80;;;;;;;;;;5076364;28;20028;-71
2022/10/21 09:01:00;;;;;;;25.35;16.77;;;;;;;;;;5076420;28;20390;-71
2022/10/21 09:03:26;;;;;;;22.13;15.35;;;;;;;;;;5076415;28;20052;-71
2022/10/21 09:05:59;;;;;;;20.15;15.68;;;;;;;;;;5076260;28;20040;-71
2022/10/21 09:08:28;;;;;;;20.08;16.20;;;;;;;;;;5076405;28;20027;-71
2022/10/21 09:10:57;;;;;;;20.00;14.88;;;;;;;;;;5076301;28;20075;-71
2022/10/21 09:13:52;;;;;;;20.65;14.15;;;;;;;;;;5075762;28;20073;-71
2022/10/21 09:16:18;;;;;;;20.83;13.63;;;;;;;;;;5075954;28;20031;-71
2022/10/21 09:19:04;;;;;;;21.20;14.63;;;;;;;;;;5076146;28;20028;-71
2022/10/21 09:21:53;;;;;;;23.13;14.63;;;;;;;;;;5075723;28;20524;-71
2022/10/21 09:24:25;;;;;;;17.60;14.48;;;;;;;;;;5076098;28;20024;-71
2022/10/21 09:26:52;;;;;;;22.50;15.27;;;;;;;;;;5075716;28;20016;-72
2022/10/21 09:29:20;;;;;;;23.70;15.27;;;;;;;;;;5075777;28;20141;-72
2022/10/21 09:31:47;;;;;;;18.42;13.93;;;;;;;;;;5075821;28;20087;-71
2022/10/21 09:34:34;;;;;;;20.10;14.57;;;;;;;;;;5075564;28;20036;-71
2022/10/21 09:37:02;;;;;;;19.10;15.00;;;;;;;;;;5075619;28;20028;-72
2022/10/21 09:39:40;;;;;;;17.10;13.45;;;;;;;;;;5075712;28;20032;-72
2022/10/21 09:42:10;;;;;;;18.60;12.57;;;;;;;;;;5075484;28;20028;-72
2022/10/21 09:44:36;;;;;;;20.80;11.98;;;;;;;;;;5075401;28;20021;-71
2022/10/21 09:47:06;;;;;;;16.55;12.75;;;;;;;;;;5075308;28;20024;-71
2022/10/21 09:49:36;;;;;;;15.82;11.70;;;;;;;;;;5075392;28;20091;-72
2022/10/21 09:52:04;;;;;;;19.08;14.38;;;;;;;;;;5075440;28;20017;-71
2022/10/21 09:54:34;;;;;;;15.63;11.35;;;;;;;;;;5075364;28;20064;-71
2022/10/21 09:57:00;;;;;;;15.52;9.52;;;;;;;;;;5075265;28;20506;-71
2022/10/21 09:59:27;;;;;;;21.25;11.02;;;;;;;;;;5075765;28;20025;-73
2022/10/21 10:01:53;;;;;;;14.77;10.80;;;;;;;;;;5075236;28;20025;-72
2022/10/21 10:04:22;;;;;;;13.30;10.05;;;;;;;;;;5057130;28;20074;-72
2022/10/21 10:06:49;;;;;;;17.08;9.57;;;;;;;;;;5060650;28;20013;-71
2022/10/21 10:09:27;;;;;;;11.38;8.70;;;;;;;;;;5074978;28;20044;-72
2022/10/21 10:11:59;;;;;;;14.55;7.45;;;;;;;;;;5075090;28;20028;-72
2022/10/21 10:14:37;;;;;;;15.45;8.95;;;;;;;;;;5075072;28;20036;-71
2022/10/21 10:17:21;;;;;;;20.67;9.98;;;;;;;;;;5043378;28;20029;-71
2022/10/21 10:20:17;;;;;;;12.80;9.45;;;;;;;;;;5074828;28;20467;-72
2022/10/21 10:22:44;;;;;;;15.13;9.35;;;;;;;;;;5057807;28;20044;-72
2022/10/21 10:25:17;;;;;;;19.15;14.68;;;;;;;;;;5074932;28;20013;-71
2022/10/21 10:27:47;;;;;;;11.82;8.88;;;;;;;;;;5057005;28;20021;-72
2022/10/21 10:30:14;;;;;;;14.32;10.10;;;;;;;;;;5074583;28;20032;-71
2022/10/21 10:32:40;;;;;;;11.88;7.55;;;;;;;;;;5074883;28;20060;-73
2022/10/21 10:35:26;;;;;;;9.63;8.60;;;;;;;;;;5074513;28;20030;-72
2022/10/21 10:37:53;;;;;;;10.98;8.18;;;;;;;;;;5050102;28;20518;-73
2022/10/21 10:40:24;;;;;;;17.45;9.40;;;;;;;;;;5075023;28;20085;-72
2022/10/21 10:42:50;;;;;;;;;;;;;;;;;;5075024;28;20030;-72
2022/10/21 10:45:19;;;;;;;11.02;8.05;;;;;;;;;;5074553;28;19911;-72
2022/10/21 10:47:51;;;;;;;18.20;12.77;;;;;;;;;;5074415;28;20164;-72
2022/10/21 10:50:36;;;;;;;12.55;8.38;;;;;;;;;;5074370;28;20028;-72
2022/10/21 10:53:20;;;;;;;9.02;7.18;;;;;;;;;;5074166;28;20484;-73
2022/10/21 10:55:48;;;;;;;13.95;7.40;;;;;;;;;;5074554;28;20604;-73
2022/10/21 10:58:14;;;;;;;10.00;8.05;;;;;;;;;;5074026;28;20024;-73
2022/10/21 11:00:43;;;;;;;14.80;7.97;;;;;;;;;;5074125;28;20021;-73
2022/10/21 11:03:12;;;;;;;15.43;8.40;;;;;;;;;;5074025;28;20061;-74
2022/10/21 11:05:46;;;;;;;17.73;8.10;;;;;;;;;;5074146;28;20052;-73
2022/10/21 11:08:32;;;;;;;7.90;7.05;;;;;;;;;;5073739;28;20025;-74
2022/10/21 11:11:06;;;;;;;11.18;7.20;;;;;;;;;;5073852;28;20052;-73
2022/10/21 11:13:34;;;;;;;18.63;8.07;;;;;;;;;;5073842;28;20036;-74
2022/10/21 11:16:10;;;;;;;12.38;8.32;;;;;;;;;;5074027;28;20402;-74
2022/10/21 11:18:52;;;;;;;21.63;7.43;;;;;;;;;;5073043;28;20067;-74
2022/10/21 11:21:30;;;;;;;11.43;7.18;;;;;;;;;;5073532;28;20032;-74
2022/10/21 11:23:56;;;;;;;8.73;6.35;;;;;;;;;;5043025;28;20436;-74
2022/10/21 11:26:34;;;;;;;7.65;6.25;;;;;;;;;;5073541;28;20024;-74
2022/10/21 11:29:15;;;;;;;9.65;6.40;;;;;;;;;;5060280;28;20046;-74
2022/10/21 11:31:52;;;;;;;10.30;7.80;;;;;;;;;;5073432;28;20058;-74
2022/10/21 11:34:26;;;;;;;12.60;8.75;;;;;;;;;;5073824;28;20102;-74
2022/10/21 11:37:10;;;;;;;13.60;8.43;;;;;;;;;;5073507;28;20512;-74
2022/10/21 11:39:45;;;;;;;10.80;6.72;;;;;;;;;;5060022;28;20028;-74
2022/10/21 11:42:17;;;;;;;11.98;8.38;;;;;;;;;;5073445;28;20426;-74
2022/10/21 11:45:16;;;;;;;8.45;7.55;;;;;;;;;;5059629;28;20025;-74
2022/10/21 11:48:00;;;;;;;8.75;7.38;;;;;;;;;;4991944;28;20089;-73
2022/10/21 11:50:37;;;;;;;8.98;6.00;;;;;;;;;;4975677;28;20034;-74
2022/10/21 11:53:10;;;;;;;10.18;8.00;;;;;;;;;;4991757;28;20035;-74
2022/10/21 11:56:12;;;;;;;10.27;7.10;;;;;;;;;;4991945;28;20030;-74
2022/10/21 11:58:48;;;;;;;8.90;7.47;;;;;;;;;;4972367;28;20126;-74
2022/10/21 12:01:32;;;;;;;12.80;7.20;;;;;;;;;;4972200;28;20035;-74
2022/10/21 12:04:04;;;;;;;13.68;8.80;;;;;;;;;;4972323;28;20114;-74
2022/10/21 12:06:38;;;;;;;11.30;7.40;;;;;;;;;;4940314;28;20050;-74
2022/10/21 12:09:17;;;;;;;9.23;7.15;;;;;;;;;;4971999;28;20031;-74
2022/10/21 12:11:45;;;;;;;9.10;7.30;;;;;;;;;;4972223;28;20027;-74
2022/10/21 12:14:33;;;;;;;11.57;7.22;;;;;;;;;;4972067;28;20046;-73
2022/10/21 12:17:01;;;;;;;9.20;7.20;;;;;;;;;;4971906;28;20039;-73
2022/10/21 12:19:27;;;;;;;10.73;6.93;;;;;;;;;;4972281;28;20039;-74
2022/10/21 12:21:53;;;;;;;7.63;6.47;;;;;;;;;;4971949;28;20026;-74
2022/10/21 12:24:40;;;;;;;8.95;7.05;;;;;;;;;;5027051;28;20104;-73
2022/10/21 12:27:15;;;;;;;7.22;6.47;;;;;;;;;;5030433;28;20136;-73
2022/10/21 12:29:47;;;;;;;7.53;5.70;;;;;;;;;;5030491;28;20037;-74
2022/10/21 12:32:22;;;;;;;9.80;6.35;;;;;;;;;;5045190;28;20033;-73
2022/10/21 12:34:48;;;;;;;12.90;6.00;;;;;;;;;;5072610;28;20032;-74
2022/10/21 12:37:33;;;;;;;13.95;7.47;;;;;;;;;;5072237;28;20433;-74
2022/10/21 12:40:11;;;;;;;11.68;7.35;;;;;;;;;;5072801;28;20364;-73
2022/10/21 12:42:42;;;;;;;11.70;7.07;;;;;;;;;;5072579;28;20107;-73
2022/10/21 12:45:25;;;;;;;13.30;7.03;;;;;;;;;;5072706;28;20044;-74
2022/10/21 12:47:52;;;;;;;9.55;6.43;;;;;;;;;;5072400;28;20387;-74
2022/10/21 12:50:18;;;;;;;12.90;6.93;;;;;;;;;;5072595;28;20029;-73
2022/10/21 12:52:45;;;;;;;17.45;10.60;;;;;;;;;;5072472;28;20388;-73
2022/10/21 12:55:22;;;;;;;13.70;9.05;;;;;;;;;;5072310;28;20339;-73
2022/10/21 12:57:57;;;;;;;12.38;7.63;;;;;;;;;;5070036;28;20035;-74
2022/10/21 13:00:26;;;;;;;11.63;7.65;;;;;;;;;;5072712;28;20036;-73
2022/10/21 13:03:03;;;;;;;9.18;6.32;;;;;;;;;;5072127;28;20419;-73
2022/10/21 13:05:38;;;;;;;13.63;7.95;;;;;;;;;;5072236;28;20015;-73
2022/10/21 13:08:21;;;;;;;12.70;7.60;;;;;;;;;;5072455;28;20020;-73
2022/10/21 13:11:03;;;;;;;14.43;7.18;;;;;;;;;;5071862;28;20503;-73
2022/10/21 13:13:31;;;;;;;13.10;8.60;;;;;;;;;;5072032;28;20029;-73
2022/10/21 13:15:58;;;;;;;16.02;11.20;;;;;;;;;;5072166;28;20040;-73
2022/10/21 13:18:43;;;;;;;12.30;8.05;;;;;;;;;;5072033;28;20097;-73
2022/10/21 13:21:27;;;;;;;15.38;13.85;;;;;;;;;;5071945;28;20032;-74
2022/10/21 13:23:53;;;;;;;11.93;8.55;;;;;;;;;;5059132;28;20455;-73
2022/10/21 13:26:24;;;;;;;17.02;10.48;;;;;;;;;;5072456;28;20025;-73
2022/10/21 13:28:50;;;;;;;;;;;;;;;;;;5072314;28;20016;-73
2022/10/21 13:31:20;;;;;;;12.05;9.93;;;;;;;;;;5072132;28;19911;-73
2022/10/21 13:33:51;;;;;;;10.05;7.22;;;;;;;;;;5071821;28;20037;-73
2022/10/21 13:36:27;;;;;;;14.57;10.45;;;;;;;;;;5071902;28;20099;-74
2022/10/21 13:38:54;;;;;;;13.35;10.75;;;;;;;;;;5071891;28;20028;-73
2022/10/21 13:41:22;;;;;;;14.18;9.32;;;;;;;;;;5073372;28;20359;-73
2022/10/21 13:44:06;;;;;;;10.30;7.88;;;;;;;;;;5076186;28;20056;-73
2022/10/21 13:46:37;;;;;;;13.93;9.32;;;;;;;;;;5075697;28;20028;-73
2022/10/21 13:49:03;;;;;;;19.35;11.57;;;;;;;;;;5075443;28;20108;-72
2022/10/21 13:51:33;;;;;;;15.52;9.18;;;;;;;;;;5075544;28;20024;-72
2022/10/21 13:54:03;;;;;;;14.30;10.23;;;;;;;;;;5075485;28;20036;-73
2022/10/21 13:56:36;;;;;;;17.15;12.38;;;;;;;;;;5075430;28;20020;-73
2022/10/21 13:59:03;;;;;;;25.40;14.82;;;;;;;;;;5075190;28;20020;-73
2022/10/21 14:01:43;;;;;;;30.95;12.45;;;;;;;;;;5075307;28;20013;-73
2022/10/21 14:04:18;;;;;;;28.37;13.77;;;;;;;;;;5075314;28;20370;-72
2022/10/21 14:06:46;;;;;;;37.70;19.10;;;;;;;;;;5075156;28;20039;-72
2022/10/21 14:09:18;;;;;;;22.63;12.60;;;;;;;;;;5075199;28;20040;-72
2022/10/21 14:11:47;;;;;;;15.48;10.90;;;;;;;;;;5075007;28;20016;-73
2022/10/21 14:14:15;;;;;;;20.95;10.38;;;;;;;;;;5075173;28;20435;-73
2022/10/21 14:16:43;;;;;;;16.70;10.80;;;;;;;;;;5075094;28;20092;-73
2022/10/21 14:19:11;;;;;;;15.95;10.20;;;;;;;;;;5075211;28;20024;-73
2022/10/21 14:21:38;;;;;;;14.27;10.55;;;;;;;;;;5075454;28;20021;-73
2022/10/21 14:24:04;;;;;;;17.35;12.25;;;;;;;;;;5075104;28;20024;-72
2022/10/21 14:26:31;;;;;;;34.28;19.30;;;;;;;;;;5074859;28;20029;-72
2022/10/21 14:28:59;;;;;;;53.33;35.33;;;;;;;;;;5074971;28;20028;-73
2022/10/21 14:31:26;;;;;;;45.58;34.20;;;;;;;;;;5074911;28;20032;-72
2022/10/21 14:33:52;;;;;;;46.60;29.27;;;;;;;;;;5074682;28;20036;-73
2022/10/21 14:36:21;;;;;;;32.90;24.55;;;;;;;;;;5074827;28;20024;-72
2022/10/21 14:38:51;;;;;;;31.35;19.83;;;;;;;;;;5074922;28;20364;-73